sensor_id;sensor_type;location;lat;lon;timestamp;pressure;altitude;pressure_sealevel;temperature;humidity
32109;BME280;18624;50.042;8.436;2023-03-18T00:01:03;99932.03;;;9.70;100.00
32109;BME280;18624;50.042;8.436;2023-03-18T00:03:34;99982.69;;;10.03;100.00
32109;BME280;18624;50.042;8.436;2023-03-18T00:06:04;99956.34;;;9.80;100.00
32109;BME280;18624;50.042;8.436;2023-03-18T00:08:31;99946.72;;;9.76;100.00
32109;BME280;18624;50.042;8.436;2023-03-18T00:10:58;99955.13;;;9.69;100.00
32109;BME280;18624;50.042;8.436;2023-03-18T00:13:26;99751.19;;;8.35;100.00
32109;BME280;18624;50.042;8.436;2023-03-18T00:15:53;99917.66;;;9.36;100.00
32109;BME280;18624;50.042;8.436;2023-03-18T00:18:19;99734.72;;;8.22;100.00
32109;BME280;18624;50.042;8.436;2023-03-18T00:20:46;99953.00;;;9.60;100.00
32109;BME280;18624;50.042;8.436;2023-03-18T00:23:13;99933.81;;;9.47;100.00
32109;BME280;18624;50.042;8.436;2023-03-18T00:25:39;99960.03;;;9.45;100.00
32109;BME280;18624;50.042;8.436;2023-03-18T00:28:06;99974.31;;;9.52;100.00
32109;BME280;18624;50.042;8.436;2023-03-18T00:30:35;99822.53;;;8.53;100.00
32109;BME280;18624;50.042;8.436;2023-03-18T00:33:02;99982.66;;;9.61;100.00
32109;BME280;18624;50.042;8.436;2023-03-18T00:35:28;99890.41;;;8.87;100.00
32109;BME280;18624;50.042;8.436;2023-03-18T00:37:56;99913.44;;;9.19;100.00
32109;BME280;18624;50.042;8.436;2023-03-18T00:40:23;99944.84;;;9.44;100.00
32109;BME280;18624;50.042;8.436;2023-03-18T00:42:56;99960.03;;;9.45;100.00
32109;BME280;18624;50.042;8.436;2023-03-18T00:45:36;100025.47;;;9.84;100.00
32109;BME280;18624;50.042;8.436;2023-03-18T00:48:03;99786.16;;;8.24;100.00
32109;BME280;18624;50.042;8.436;2023-03-18T00:50:29;99952.13;;;9.34;100.00
32109;BME280;18624;50.042;8.436;2023-03-18T00:52:57;99950.47;;;9.36;100.00
32109;BME280;18624;50.042;8.436;2023-03-18T00:55:25;100013.84;;;9.80;100.00
32109;BME280;18624;50.042;8.436;2023-03-18T00:57:52;99971.41;;;9.43;100.00
32109;BME280;18624;50.042;8.436;2023-03-18T01:00:19;100003.56;;;9.55;100.00
32109;BME280;18624;50.042;8.436;2023-03-18T01:02:46;99975.69;;;9.44;100.00
32109;BME280;18624;50.042;8.436;2023-03-18T01:05:14;100012.69;;;9.65;100.00
32109;BME280;18624;50.042;8.436;2023-03-18T01:07:42;99761.94;;;7.93;100.00
32109;BME280;18624;50.042;8.436;2023-03-18T01:10:10;99775.84;;;7.99;100.00
32109;BME280;18624;50.042;8.436;2023-03-18T01:12:39;99911.00;;;8.92;100.00
32109;BME280;18624;50.042;8.436;2023-03-18T01:15:08;99936.00;;;9.07;100.00
32109;BME280;18624;50.042;8.436;2023-03-18T01:17:35;99996.28;;;9.49;100.00
32109;BME280;18624;50.042;8.436;2023-03-18T01:20:03;99958.63;;;9.24;100.00
32109;BME280;18624;50.042;8.436;2023-03-18T01:22:29;99918.66;;;8.81;100.00
32109;BME280;18624;50.042;8.436;2023-03-18T01:24:55;99984.00;;;9.24;100.00
32109;BME280;18624;50.042;8.436;2023-03-18T01:27:28;99949.06;;;8.99;100.00
32109;BME280;18624;50.042;8.436;2023-03-18T01:29:57;99899.53;;;8.48;100.00
32109;BME280;18624;50.042;8.436;2023-03-18T01:32:27;100013.13;;;9.31;100.00
32109;BME280;18624;50.042;8.436;2023-03-18T01:34:54;99938.16;;;8.83;100.00
32109;BME280;18624;50.042;8.436;2023-03-18T01:37:20;99952.56;;;9.00;100.00
32109;BME280;18624;50.042;8.436;2023-03-18T01:39:57;100011.00;;;9.38;100.00
32109;BME280;18624;50.042;8.436;2023-03-18T01:42:24;99935.59;;;8.76;100.00
32109;BME280;18624;50.042;8.436;2023-03-18T01:45:19;99995.47;;;9.19;100.00
32109;BME280;18624;50.042;8.436;2023-03-18T01:47:49;100023.91;;;9.38;100.00
32109;BME280;18624;50.042;8.436;2023-03-18T01:50:21;100018.78;;;9.40;100.00
32109;BME280;18624;50.042;8.436;2023-03-18T01:52:53;100030.06;;;9.42;100.00
32109;BME280;18624;50.042;8.436;2023-03-18T01:55:24;100004.53;;;9.32;100.00
32109;BME280;18624;50.042;8.436;2023-03-18T01:57:52;99888.72;;;8.61;100.00
32109;BME280;18624;50.042;8.436;2023-03-18T02:00:20;100010.03;;;9.45;100.00
32109;BME280;18624;50.042;8.436;2023-03-18T02:02:48;99962.81;;;9.12;100.00
32109;BME280;18624;50.042;8.436;2023-03-18T02:05:18;100011.94;;;9.48;100.00
32109;BME280;18624;50.042;8.436;2023-03-18T02:07:45;99904.69;;;8.79;100.00
32109;BME280;18624;50.042;8.436;2023-03-18T02:10:16;100010.72;;;9.49;100.00
32109;BME280;18624;50.042;8.436;2023-03-18T02:12:48;99964.34;;;9.13;100.00
32109;BME280;18624;50.042;8.436;2023-03-18T02:15:24;100012.78;;;9.45;100.00
32109;BME280;18624;50.042;8.436;2023-03-18T02:18:02;100007.66;;;9.47;100.00
32109;BME280;18624;50.042;8.436;2023-03-18T02:23:25;99959.66;;;9.13;100.00
32109;BME280;18624;50.042;8.436;2023-03-18T02:26:04;100011.94;;;9.48;100.00
32109;BME280;18624;50.042;8.436;2023-03-18T02:28:35;99976.22;;;9.23;100.00
32109;BME280;18624;50.042;8.436;2023-03-18T02:31:05;99984.78;;;9.25;100.00
32109;BME280;18624;50.042;8.436;2023-03-18T02:33:36;100003.25;;;9.37;100.00
32109;BME280;18624;50.042;8.436;2023-03-18T02:36:08;99969.50;;;9.11;100.00
32109;BME280;18624;50.042;8.436;2023-03-18T02:38:41;99971.78;;;9.12;100.00
32109;BME280;18624;50.042;8.436;2023-03-18T02:41:18;99979.66;;;9.10;100.00
32109;BME280;18624;50.042;8.436;2023-03-18T02:43:46;99980.84;;;9.09;100.00
32109;BME280;18624;50.042;8.436;2023-03-18T02:49:07;99976.06;;;8.81;100.00
32109;BME280;18624;50.042;8.436;2023-03-18T02:51:36;100019.03;;;9.13;100.00
32109;BME280;18624;50.042;8.436;2023-03-18T02:54:09;99999.31;;;8.89;100.00
32109;BME280;18624;50.042;8.436;2023-03-18T02:56:37;99767.50;;;7.33;100.00
32109;BME280;18624;50.042;8.436;2023-03-18T02:59:04;99806.28;;;7.61;100.00
32109;BME280;18624;50.042;8.436;2023-03-18T03:01:31;100036.72;;;9.08;100.00
32109;BME280;18624;50.042;8.436;2023-03-18T03:03:59;100014.16;;;8.88;100.00
32109;BME280;18624;50.042;8.436;2023-03-18T03:06:26;100002.94;;;8.82;100.00
32109;BME280;18624;50.042;8.436;2023-03-18T03:08:53;100013.75;;;9.06;100.00
32109;BME280;18624;50.042;8.436;2023-03-18T03:11:20;100038.03;;;9.20;100.00
32109;BME280;18624;50.042;8.436;2023-03-18T03:13:47;100025.09;;;9.04;100.00
32109;BME280;18624;50.042;8.436;2023-03-18T03:16:15;99813.09;;;7.53;100.00
32109;BME280;18624;50.042;8.436;2023-03-18T03:18:42;99953.91;;;8.59;100.00
32109;BME280;18624;50.042;8.436;2023-03-18T03:21:10;99809.03;;;7.61;100.00
32109;BME280;18624;50.042;8.436;2023-03-18T03:23:36;99812.88;;;7.44;100.00
32109;BME280;18624;50.042;8.436;2023-03-18T03:26:03;99913.44;;;8.18;100.00
32109;BME280;18624;50.042;8.436;2023-03-18T03:28:30;100062.88;;;9.26;100.00
32109;BME280;18624;50.042;8.436;2023-03-18T03:30:59;99867.47;;;7.80;100.00
32109;BME280;18624;50.042;8.436;2023-03-18T03:33:26;99818.25;;;7.67;100.00
32109;BME280;18624;50.042;8.436;2023-03-18T03:35:55;99969.66;;;8.71;100.00
32109;BME280;18624;50.042;8.436;2023-03-18T03:38:24;100052.31;;;9.28;100.00
32109;BME280;18624;50.042;8.436;2023-03-18T03:40:53;100063.56;;;9.30;100.00
32109;BME280;18624;50.042;8.436;2023-03-18T03:43:19;99990.25;;;8.92;100.00
32109;BME280;18624;50.042;8.436;2023-03-18T03:45:46;100001.19;;;8.92;100.00
32109;BME280;18624;50.042;8.436;2023-03-18T03:48:12;100045.53;;;9.16;100.00
32109;BME280;18624;50.042;8.436;2023-03-18T03:50:39;100065.88;;;9.15;100.00
32109;BME280;18624;50.042;8.436;2023-03-18T03:53:06;100001.94;;;8.76;100.00
32109;BME280;18624;50.042;8.436;2023-03-18T03:55:33;100036.66;;;9.12;100.00
32109;BME280;18624;50.042;8.436;2023-03-18T03:58:00;99932.06;;;8.43;100.00
32109;BME280;18624;50.042;8.436;2023-03-18T04:00:29;99956.56;;;8.62;100.00
32109;BME280;18624;50.042;8.436;2023-03-18T04:02:56;100004.34;;;8.91;100.00
32109;BME280;18624;50.042;8.436;2023-03-18T04:05:24;100039.31;;;9.16;100.00
32109;BME280;18624;50.042;8.436;2023-03-18T04:07:52;100018.69;;;8.95;100.00
32109;BME280;18624;50.042;8.436;2023-03-18T04:10:28;99949.41;;;8.52;100.00
32109;BME280;18624;50.042;8.436;2023-03-18T04:12:54;99990.56;;;8.78;100.00
32109;BME280;18624;50.042;8.436;2023-03-18T04:15:21;100056.28;;;9.07;100.00
32109;BME280;18624;50.042;8.436;2023-03-18T04:17:51;99936.19;;;8.31;100.00
32109;BME280;18624;50.042;8.436;2023-03-18T04:20:18;99982.63;;;8.67;100.00
32109;BME280;18624;50.042;8.436;2023-03-18T04:22:45;100027.56;;;8.99;100.00
32109;BME280;18624;50.042;8.436;2023-03-18T04:25:15;100028.59;;;9.05;100.00
32109;BME280;18624;50.042;8.436;2023-03-18T04:27:42;99999.13;;;8.80;100.00
32109;BME280;18624;50.042;8.436;2023-03-18T04:30:12;99962.53;;;8.57;100.00
32109;BME280;18624;50.042;8.436;2023-03-18T04:32:52;100050.31;;;9.12;100.00
32109;BME280;18624;50.042;8.436;2023-03-18T04:35:21;99826.56;;;7.60;100.00
32109;BME280;18624;50.042;8.436;2023-03-18T04:37:49;100051.16;;;9.09;100.00
32109;BME280;18624;50.042;8.436;2023-03-18T04:40:17;100028.25;;;8.86;100.00
32109;BME280;18624;50.042;8.436;2023-03-18T04:42:44;99984.84;;;8.56;100.00
32109;BME280;18624;50.042;8.436;2023-03-18T04:45:14;100060.22;;;9.06;100.00
32109;BME280;18624;50.042;8.436;2023-03-18T04:47:42;100065.69;;;9.06;100.00
32109;BME280;18624;50.042;8.436;2023-03-18T04:50:10;100062.97;;;9.06;100.00
32109;BME280;18624;50.042;8.436;2023-03-18T04:52:39;100069.59;;;9.05;100.00
32109;BME280;18624;50.042;8.436;2023-03-18T04:55:07;99990.00;;;8.50;100.00
32109;BME280;18624;50.042;8.436;2023-03-18T04:57:37;100054.09;;;8.82;100.00
32109;BME280;18624;50.042;8.436;2023-03-18T05:00:08;100064.50;;;9.07;100.00
32109;BME280;18624;50.042;8.436;2023-03-18T05:02:39;100010.88;;;8.60;100.00
32109;BME280;18624;50.042;8.436;2023-03-18T05:05:07;99996.16;;;8.54;100.00
32109;BME280;18624;50.042;8.436;2023-03-18T05:07:39;100075.34;;;9.10;100.00
32109;BME280;18624;50.042;8.436;2023-03-18T05:10:10;99942.41;;;8.31;100.00
32109;BME280;18624;50.042;8.436;2023-03-18T05:12:37;99969.16;;;8.40;100.00
32109;BME280;18624;50.042;8.436;2023-03-18T05:15:05;100025.75;;;8.76;100.00
32109;BME280;18624;50.042;8.436;2023-03-18T05:17:35;100046.03;;;8.95;100.00
32109;BME280;18624;50.042;8.436;2023-03-18T05:20:02;99952.28;;;8.25;100.00
32109;BME280;18624;50.042;8.436;2023-03-18T05:22:29;100062.16;;;8.89;100.00
32109;BME280;18624;50.042;8.436;2023-03-18T05:25:05;100044.44;;;8.77;100.00
32109;BME280;18624;50.042;8.436;2023-03-18T05:27:32;100075.59;;;9.00;100.00
32109;BME280;18624;50.042;8.436;2023-03-18T05:30:04;100073.63;;;9.00;100.00
32109;BME280;18624;50.042;8.436;2023-03-18T05:32:44;100033.06;;;8.62;100.00
32109;BME280;18624;50.042;8.436;2023-03-18T05:35:12;100070.78;;;8.87;100.00
32109;BME280;18624;50.042;8.436;2023-03-18T05:37:47;100008.09;;;8.44;100.00
32109;BME280;18624;50.042;8.436;2023-03-18T05:40:15;100090.13;;;8.77;100.00
32109;BME280;18624;50.042;8.436;2023-03-18T05:42:51;100051.16;;;8.56;100.00
32109;BME280;18624;50.042;8.436;2023-03-18T05:45:30;100055.28;;;8.65;100.00
32109;BME280;18624;50.042;8.436;2023-03-18T05:47:57;100054.84;;;8.66;100.00
32109;BME280;18624;50.042;8.436;2023-03-18T05:50:33;100042.97;;;8.56;100.00
32109;BME280;18624;50.042;8.436;2023-03-18T05:53:04;100013.41;;;8.31;100.00
32109;BME280;18624;50.042;8.436;2023-03-18T05:55:35;100027.72;;;8.39;100.00
32109;BME280;18624;50.042;8.436;2023-03-18T05:58:02;100058.38;;;8.47;100.00
32109;BME280;18624;50.042;8.436;2023-03-18T06:00:31;100007.97;;;8.11;100.00
32109;BME280;18624;50.042;8.436;2023-03-18T06:02:59;100111.53;;;8.62;100.00
32109;BME280;18624;50.042;8.436;2023-03-18T06:05:28;100089.91;;;8.51;100.00
32109;BME280;18624;50.042;8.436;2023-03-18T06:07:55;100095.84;;;8.46;100.00
32109;BME280;18624;50.042;8.436;2023-03-18T06:10:22;100033.63;;;8.14;100.00
32109;BME280;18624;50.042;8.436;2023-03-18T06:12:50;100090.94;;;8.57;100.00
32109;BME280;18624;50.042;8.436;2023-03-18T06:15:17;100095.19;;;8.58;100.00
32109;BME280;18624;50.042;8.436;2023-03-18T06:17:45;100086.38;;;8.51;100.00
32109;BME280;18624;50.042;8.436;2023-03-18T06:20:13;100063.56;;;8.41;100.00
32109;BME280;18624;50.042;8.436;2023-03-18T06:22:40;100102.13;;;8.63;100.00
32109;BME280;18624;50.042;8.436;2023-03-18T06:25:07;100085.22;;;8.52;100.00
32109;BME280;18624;50.042;8.436;2023-03-18T06:27:36;100058.19;;;8.38;100.00
32109;BME280;18624;50.042;8.436;2023-03-18T06:30:04;99990.78;;;7.91;100.00
32109;BME280;18624;50.042;8.436;2023-03-18T06:32:34;100101.31;;;8.66;100.00
32109;BME280;18624;50.042;8.436;2023-03-18T06:35:01;99930.47;;;7.46;100.00
32109;BME280;18624;50.042;8.436;2023-03-18T06:37:29;100007.53;;;7.93;100.00
32109;BME280;18624;50.042;8.436;2023-03-18T06:39:55;99889.63;;;7.22;100.00
32109;BME280;18624;50.042;8.436;2023-03-18T06:42:22;100081.91;;;8.41;100.00
32109;BME280;18624;50.042;8.436;2023-03-18T06:44:57;100038.19;;;8.21;100.00
32109;BME280;18624;50.042;8.436;2023-03-18T06:47:36;100106.97;;;8.55;100.00
32109;BME280;18624;50.042;8.436;2023-03-18T06:50:03;100041.41;;;8.16;100.00
32109;BME280;18624;50.042;8.436;2023-03-18T06:52:34;99886.28;;;7.11;100.00
32109;BME280;18624;50.042;8.436;2023-03-18T06:55:10;100032.94;;;8.10;100.00
32109;BME280;18624;50.042;8.436;2023-03-18T06:57:39;100109.09;;;8.48;100.00
32109;BME280;18624;50.042;8.436;2023-03-18T07:00:06;100073.41;;;8.35;100.00
32109;BME280;18624;50.042;8.436;2023-03-18T07:02:34;100050.09;;;8.10;100.00
32109;BME280;18624;50.042;8.436;2023-03-18T07:05:05;100010.44;;;7.82;100.00
32109;BME280;18624;50.042;8.436;2023-03-18T07:07:34;99989.66;;;7.69;100.00
32109;BME280;18624;50.042;8.436;2023-03-18T07:10:08;100131.50;;;8.79;100.00
32109;BME280;18624;50.042;8.436;2023-03-18T07:12:35;100062.13;;;8.33;100.00
32109;BME280;18624;50.042;8.436;2023-03-18T07:15:02;100040.06;;;8.24;100.00
32109;BME280;18624;50.042;8.436;2023-03-18T07:17:28;100087.84;;;8.55;100.00
32109;BME280;18624;50.042;8.436;2023-03-18T07:19:55;99980.31;;;7.90;100.00
32109;BME280;18624;50.042;8.436;2023-03-18T07:22:22;100100.09;;;8.67;100.00
32109;BME280;18624;50.042;8.436;2023-03-18T07:24:49;100117.25;;;8.87;100.00
32109;BME280;18624;50.042;8.436;2023-03-18T07:27:17;100061.41;;;8.69;100.00
32109;BME280;18624;50.042;8.436;2023-03-18T07:29:43;100073.75;;;8.77;100.00
32109;BME280;18624;50.042;8.436;2023-03-18T07:32:10;100109.34;;;9.09;100.00
32109;BME280;18624;50.042;8.436;2023-03-18T07:34:36;99867.97;;;7.55;100.00
32109;BME280;18624;50.042;8.436;2023-03-18T07:37:02;100065.22;;;8.91;100.00
32109;BME280;18624;50.042;8.436;2023-03-18T07:39:29;100122.38;;;9.38;100.00
32109;BME280;18624;50.042;8.436;2023-03-18T07:41:55;100072.03;;;9.19;100.00
32109;BME280;18624;50.042;8.436;2023-03-18T07:44:27;100073.66;;;9.33;100.00
32109;BME280;18624;50.042;8.436;2023-03-18T07:46:53;99978.88;;;8.77;100.00
32109;BME280;18624;50.042;8.436;2023-03-18T07:49:20;100052.19;;;9.48;100.00
32109;BME280;18624;50.042;8.436;2023-03-18T07:51:47;100047.91;;;9.63;100.00
32109;BME280;18624;50.042;8.436;2023-03-18T07:54:13;100084.94;;;10.13;100.00
32109;BME280;18624;50.042;8.436;2023-03-18T07:56:39;100093.47;;;10.31;100.00
32109;BME280;18624;50.042;8.436;2023-03-18T07:59:06;100093.63;;;10.53;100.00
32109;BME280;18624;50.042;8.436;2023-03-18T08:01:32;100116.84;;;10.78;100.00
32109;BME280;18624;50.042;8.436;2023-03-18T08:03:59;100138.16;;;10.99;100.00
32109;BME280;18624;50.042;8.436;2023-03-18T08:06:25;100086.88;;;10.71;100.00
32109;BME280;18624;50.042;8.436;2023-03-18T08:08:51;100124.22;;;11.06;100.00
32109;BME280;18624;50.042;8.436;2023-03-18T08:11:18;100052.91;;;10.68;100.00
32109;BME280;18624;50.042;8.436;2023-03-18T08:13:44;100091.50;;;11.12;100.00
32109;BME280;18624;50.042;8.436;2023-03-18T08:16:11;100145.19;;;11.51;100.00
32109;BME280;18624;50.042;8.436;2023-03-18T08:18:37;100136.06;;;11.67;100.00
32109;BME280;18624;50.042;8.436;2023-03-18T08:21:04;100033.03;;;11.02;100.00
32109;BME280;18624;50.042;8.436;2023-03-18T08:23:31;99988.31;;;10.93;100.00
32109;BME280;18624;50.042;8.436;2023-03-18T08:25:58;100123.31;;;11.86;100.00
32109;BME280;18624;50.042;8.436;2023-03-18T08:28:24;100027.63;;;11.37;100.00
32109;BME280;18624;50.042;8.436;2023-03-18T08:30:55;99937.53;;;10.88;100.00
32109;BME280;18624;50.042;8.436;2023-03-18T08:33:23;99903.03;;;10.65;100.00
32109;BME280;18624;50.042;8.436;2023-03-18T08:35:50;100160.59;;;12.44;100.00
32109;BME280;18624;50.042;8.436;2023-03-18T08:38:17;100156.19;;;12.46;100.00
32109;BME280;18624;50.042;8.436;2023-03-18T08:40:44;100174.03;;;12.63;100.00
32109;BME280;18624;50.042;8.436;2023-03-18T08:43:12;100037.63;;;11.78;100.00
32109;BME280;18624;50.042;8.436;2023-03-18T08:45:38;100117.63;;;12.37;100.00
32109;BME280;18624;50.042;8.436;2023-03-18T08:48:05;100169.75;;;12.84;100.00
32109;BME280;18624;50.042;8.436;2023-03-18T08:50:34;100118.41;;;12.59;96.40
32109;BME280;18624;50.042;8.436;2023-03-18T08:53:01;100165.13;;;13.03;95.16
32109;BME280;18624;50.042;8.436;2023-03-18T08:55:33;100156.88;;;13.03;95.40
32109;BME280;18624;50.042;8.436;2023-03-18T08:58:00;99956.16;;;11.75;94.18
32109;BME280;18624;50.042;8.436;2023-03-18T09:00:27;100130.38;;;12.97;93.67
32109;BME280;18624;50.042;8.436;2023-03-18T09:02:53;100077.97;;;12.69;92.14
32109;BME280;18624;50.042;8.436;2023-03-18T09:05:20;100161.94;;;13.36;95.57
32109;BME280;18624;50.042;8.436;2023-03-18T09:07:46;100148.00;;;13.30;93.87
32109;BME280;18624;50.042;8.436;2023-03-18T09:10:13;99962.22;;;12.14;92.83
32109;BME280;18624;50.042;8.436;2023-03-18T09:12:40;100055.75;;;12.85;90.25
32109;BME280;18624;50.042;8.436;2023-03-18T09:15:08;100127.09;;;13.42;87.42
32109;BME280;18624;50.042;8.436;2023-03-18T09:17:36;100120.38;;;13.43;80.85
32109;BME280;18624;50.042;8.436;2023-03-18T09:20:25;100125.44;;;13.54;81.75
32109;BME280;18624;50.042;8.436;2023-03-18T09:22:52;100055.84;;;13.13;71.60
32109;BME280;18624;50.042;8.436;2023-03-18T09:25:18;100187.22;;;13.93;73.26
32109;BME280;18624;50.042;8.436;2023-03-18T09:27:45;100190.28;;;13.95;72.21
32109;BME280;18624;50.042;8.436;2023-03-18T09:30:12;100117.78;;;13.49;72.08
32109;BME280;18624;50.042;8.436;2023-03-18T09:32:39;100095.06;;;13.26;72.72
32109;BME280;18624;50.042;8.436;2023-03-18T09:35:06;100135.69;;;13.53;73.14
32109;BME280;18624;50.042;8.436;2023-03-18T09:37:33;100153.47;;;13.61;75.05
32109;BME280;18624;50.042;8.436;2023-03-18T09:39:59;100076.81;;;13.10;74.65
32109;BME280;18624;50.042;8.436;2023-03-18T09:42:35;100181.16;;;13.67;77.05
32109;BME280;18624;50.042;8.436;2023-03-18T09:47:51;100034.47;;;12.77;79.85
32109;BME280;18624;50.042;8.436;2023-03-18T09:50:43;99985.59;;;12.40;78.29
32109;BME280;18624;50.042;8.436;2023-03-18T09:56:01;100152.25;;;13.62;77.90
32109;BME280;18624;50.042;8.436;2023-03-18T10:01:26;100163.75;;;13.70;77.84
32109;BME280;18624;50.042;8.436;2023-03-18T10:06:26;100030.84;;;12.80;73.65
32109;BME280;18624;50.042;8.436;2023-03-18T10:11:30;100121.41;;;13.36;73.98
32109;BME280;18624;50.042;8.436;2023-03-18T10:14:18;100154.19;;;13.53;75.13
32109;BME280;18624;50.042;8.436;2023-03-18T10:17:08;100133.81;;;13.41;74.00
32109;BME280;18624;50.042;8.436;2023-03-18T10:19:42;100147.63;;;13.59;75.00
32109;BME280;18624;50.042;8.436;2023-03-18T10:22:27;100033.28;;;12.87;74.17
32109;BME280;18624;50.042;8.436;2023-03-18T10:28:17;100162.41;;;13.93;72.27
32109;BME280;18624;50.042;8.436;2023-03-18T10:34:00;100138.03;;;13.73;70.46
32109;BME280;18624;50.042;8.436;2023-03-18T10:36:30;100148.31;;;13.91;72.65
32109;BME280;18624;50.042;8.436;2023-03-18T10:39:00;100044.63;;;13.29;71.54
32109;BME280;18624;50.042;8.436;2023-03-18T10:41:36;100125.84;;;13.92;71.40
32109;BME280;18624;50.042;8.436;2023-03-18T10:44:20;100148.81;;;14.17;72.05
32109;BME280;18624;50.042;8.436;2023-03-18T10:47:00;100157.84;;;14.17;72.49
32109;BME280;18624;50.042;8.436;2023-03-18T10:49:30;100039.59;;;13.37;70.03
32109;BME280;18624;50.042;8.436;2023-03-18T10:52:06;100145.44;;;14.04;70.92
32109;BME280;18624;50.042;8.436;2023-03-18T10:54:41;100097.50;;;13.74;68.44
32109;BME280;18624;50.042;8.436;2023-03-18T10:57:13;100064.56;;;13.52;72.11
32109;BME280;18624;50.042;8.436;2023-03-18T10:59:39;100145.75;;;14.06;72.41
32109;BME280;18624;50.042;8.436;2023-03-18T11:02:16;100152.03;;;14.15;71.75
32109;BME280;18624;50.042;8.436;2023-03-18T11:04:55;100145.00;;;14.14;69.10
32109;BME280;18624;50.042;8.436;2023-03-18T11:07:24;100129.34;;;13.93;70.27
32109;BME280;18624;50.042;8.436;2023-03-18T11:09:52;99998.81;;;13.04;71.87
32109;BME280;18624;50.042;8.436;2023-03-18T11:12:25;100076.03;;;13.59;72.23
32109;BME280;18624;50.042;8.436;2023-03-18T11:14:52;100037.13;;;13.30;71.22
32109;BME280;18624;50.042;8.436;2023-03-18T11:17:30;100063.63;;;13.55;71.69
32109;BME280;18624;50.042;8.436;2023-03-18T11:20:04;100142.53;;;14.07;71.75
32109;BME280;18624;50.042;8.436;2023-03-18T11:22:33;100079.13;;;13.61;73.03
32109;BME280;18624;50.042;8.436;2023-03-18T11:27:46;100145.63;;;14.18;73.02
32109;BME280;18624;50.042;8.436;2023-03-18T11:30:27;100141.47;;;14.23;72.83
32109;BME280;18624;50.042;8.436;2023-03-18T11:35:38;100141.91;;;14.40;72.60
32109;BME280;18624;50.042;8.436;2023-03-18T11:38:08;100142.25;;;14.51;73.53
32109;BME280;18624;50.042;8.436;2023-03-18T11:40:39;99995.25;;;13.53;72.36
32109;BME280;18624;50.042;8.436;2023-03-18T11:43:15;100140.13;;;14.55;73.12
32109;BME280;18624;50.042;8.436;2023-03-18T11:48:14;100141.63;;;14.56;72.01
32109;BME280;18624;50.042;8.436;2023-03-18T11:50:53;100107.59;;;14.32;71.71
32109;BME280;18624;50.042;8.436;2023-03-18T11:53:42;100109.44;;;14.35;72.06
32109;BME280;18624;50.042;8.436;2023-03-18T11:56:30;100105.94;;;14.34;70.27
32109;BME280;18624;50.042;8.436;2023-03-18T12:01:58;100095.66;;;14.44;70.12
32109;BME280;18624;50.042;8.436;2023-03-18T12:07:52;100085.72;;;14.47;68.61
32109;BME280;18624;50.042;8.436;2023-03-18T12:10:39;100120.78;;;14.74;68.42
32109;BME280;18624;50.042;8.436;2023-03-18T12:13:37;100109.75;;;14.74;68.10
32109;BME280;18624;50.042;8.436;2023-03-18T12:27:31;100096.56;;;14.68;68.88
32109;BME280;18624;50.042;8.436;2023-03-18T12:30:22;100112.13;;;14.90;66.91
32109;BME280;18624;50.042;8.436;2023-03-18T12:45:10;100089.91;;;14.93;66.91
32109;BME280;18624;50.042;8.436;2023-03-18T12:47:51;100079.38;;;14.83;67.94
32109;BME280;18624;50.042;8.436;2023-03-18T12:53:03;100075.97;;;14.88;68.94
32109;BME280;18624;50.042;8.436;2023-03-18T12:55:38;100038.81;;;14.65;68.80
32109;BME280;18624;50.042;8.436;2023-03-18T12:58:17;100083.47;;;14.97;66.26
32109;BME280;18624;50.042;8.436;2023-03-18T13:00:57;100089.69;;;15.06;64.89
32109;BME280;18624;50.042;8.436;2023-03-18T13:03:37;100026.69;;;14.62;64.46
32109;BME280;18624;50.042;8.436;2023-03-18T13:06:19;99998.69;;;14.46;65.90
32109;BME280;18624;50.042;8.436;2023-03-18T13:11:53;100086.19;;;15.06;63.43
32109;BME280;18624;50.042;8.436;2023-03-18T13:17:10;100085.75;;;14.98;64.04
32109;BME280;18624;50.042;8.436;2023-03-18T13:19:40;99984.34;;;14.32;62.21
32109;BME280;18624;50.042;8.436;2023-03-18T13:25:23;100071.03;;;15.01;63.34
32109;BME280;18624;50.042;8.436;2023-03-18T13:28:05;100078.34;;;15.13;63.81
32109;BME280;18624;50.042;8.436;2023-03-18T13:44:38;100054.00;;;15.36;63.57
32109;BME280;18624;50.042;8.436;2023-03-18T13:47:07;100053.72;;;15.25;64.09
32109;BME280;18624;50.042;8.436;2023-03-18T13:49:37;99999.22;;;14.77;65.03
32109;BME280;18624;50.042;8.436;2023-03-18T13:52:21;100066.56;;;15.37;64.58
32109;BME280;18624;50.042;8.436;2023-03-18T13:54:48;100062.78;;;15.25;64.24
32109;BME280;18624;50.042;8.436;2023-03-18T13:57:30;99962.06;;;14.63;64.14
32109;BME280;18624;50.042;8.436;2023-03-18T14:02:44;100040.63;;;15.10;63.54
32109;BME280;18624;50.042;8.436;2023-03-18T14:08:31;100009.44;;;14.95;65.76
32109;BME280;18624;50.042;8.436;2023-03-18T14:14:00;100054.59;;;15.31;64.79
32109;BME280;18624;50.042;8.436;2023-03-18T14:16:29;99941.84;;;14.57;64.96
32109;BME280;18624;50.042;8.436;2023-03-18T14:19:17;99975.88;;;14.87;64.17
32109;BME280;18624;50.042;8.436;2023-03-18T14:21:49;100038.63;;;15.35;64.24
32109;BME280;18624;50.042;8.436;2023-03-18T14:29:24;100010.31;;;14.68;100.00
32109;BME280;18624;50.042;8.436;2023-03-18T14:31:57;99983.63;;;13.86;100.00
32109;BME280;18624;50.042;8.436;2023-03-18T14:34:30;99933.53;;;12.96;100.00
32109;BME280;18624;50.042;8.436;2023-03-18T14:39:35;100036.59;;;13.13;100.00
32109;BME280;18624;50.042;8.436;2023-03-18T14:42:14;100002.28;;;12.86;100.00
32109;BME280;18624;50.042;8.436;2023-03-18T14:44:51;100046.66;;;13.38;100.00
32109;BME280;18624;50.042;8.436;2023-03-18T14:47:24;100002.59;;;13.29;100.00
32109;BME280;18624;50.042;8.436;2023-03-18T14:52:57;100039.19;;;13.57;100.00
32109;BME280;18624;50.042;8.436;2023-03-18T14:55:31;100035.34;;;13.54;100.00
32109;BME280;18624;50.042;8.436;2023-03-18T14:57:59;99948.97;;;12.93;100.00